createdAt,value
2022-11-16T00:02:07.005Z,87.76
2022-11-16T00:04:33.609Z,88.46
2022-11-16T00:07:02.654Z,87.35
2022-11-16T00:09:31.938Z,87.75
2022-11-16T00:12:04.221Z,89.40
2022-11-16T00:14:33.233Z,88.59
2022-11-16T00:17:00.321Z,87.97
2022-11-16T00:19:27.695Z,90.03
2022-11-16T00:21:54.747Z,90.05
2022-11-16T00:24:23.239Z,91.30
2022-11-16T00:26:50.167Z,90.74
2022-11-16T00:29:19.329Z,91.07
2022-11-16T00:31:46.635Z,91.19
2022-11-16T00:34:13.562Z,89.76
2022-11-16T00:36:40.136Z,90.86
2022-11-16T00:39:06.587Z,91.31
2022-11-16T00:41:33.170Z,90.71
2022-11-16T00:43:59.562Z,90.73
2022-11-16T00:46:25.984Z,89.39
2022-11-16T00:48:52.471Z,90.67
2022-11-16T00:51:19.012Z,90.97
2022-11-16T00:53:45.398Z,90.74
2022-11-16T00:56:11.920Z,90.85
2022-11-16T00:58:38.357Z,91.26
2022-11-16T01:01:09.389Z,93.13
2022-11-16T01:03:36.815Z,93.39
2022-11-16T01:06:09.904Z,92.26
2022-11-16T01:08:37.671Z,92.03
2022-11-16T01:11:23.766Z,93.53
2022-11-16T01:13:50.557Z,94.44
2022-11-16T01:16:18.272Z,94.48
2022-11-16T01:18:48.319Z,93.86
2022-11-16T01:21:14.773Z,94.47
2022-11-16T01:23:41.170Z,94.22
2022-11-16T01:26:07.702Z,93.92
2022-11-16T01:28:34.453Z,94.90
2022-11-16T01:31:01.227Z,95.49
2022-11-16T01:33:29.256Z,97.70
2022-11-16T01:35:55.684Z,96.24
2022-11-16T01:38:25.937Z,94.81
2022-11-16T01:40:55.053Z,95.38
2022-11-16T01:43:25.837Z,96.00
2022-11-16T01:45:52.707Z,95.49
2022-11-16T01:48:30.129Z,98.18
2022-11-16T01:50:57.818Z,97.62
2022-11-16T01:53:24.830Z,96.70
2022-11-16T01:55:52.134Z,96.11
2022-11-16T01:58:23.119Z,97.49
2022-11-16T02:00:49.804Z,97.58
2022-11-16T02:03:21.652Z,98.26
2022-11-16T02:06:06.804Z,99.04
2022-11-16T02:09:00.947Z,98.73
2022-11-16T02:11:51.972Z,98.03
2022-11-16T02:14:36.724Z,98.24
2022-11-16T02:17:19.733Z,98.72
2022-11-16T02:20:27.000Z,99.43
2022-11-16T02:23:16.782Z,100.00
2022-11-16T02:26:12.388Z,100.00
2022-11-16T02:28:38.933Z,99.94
2022-11-16T02:31:07.462Z,98.95
2022-11-16T02:33:39.000Z,99.32
2022-11-16T02:36:10.060Z,99.04
2022-11-16T02:38:40.386Z,100.00
2022-11-16T02:41:16.990Z,100.00
2022-11-16T02:44:04.791Z,99.81
2022-11-16T02:46:37.372Z,99.92
2022-11-16T02:49:09.585Z,100.00
2022-11-16T02:51:36.799Z,100.00
2022-11-16T02:54:05.498Z,100.00
2022-11-16T02:56:43.972Z,99.83
2022-11-16T02:59:14.145Z,97.89
2022-11-16T03:01:54.894Z,98.21
2022-11-16T03:04:28.251Z,97.84
2022-11-16T03:06:58.165Z,98.38
2022-11-16T03:09:30.248Z,98.31
2022-11-16T03:12:00.771Z,97.42
2022-11-16T03:14:42.977Z,98.52
2022-11-16T03:17:18.269Z,98.54
2022-11-16T03:19:51.791Z,98.18
2022-11-16T03:22:26.242Z,99.16
2022-11-16T03:24:53.093Z,99.82
2022-11-16T03:27:45.466Z,99.73
2022-11-16T03:30:23.506Z,100.00
2022-11-16T03:33:05.708Z,100.00
2022-11-16T03:35:59.453Z,100.00
2022-11-16T03:38:27.804Z,100.00
2022-11-16T03:40:59.812Z,100.00
2022-11-16T03:43:27.827Z,100.00
2022-11-16T03:45:54.841Z,100.00
2022-11-16T03:48:21.259Z,100.00
2022-11-16T03:50:48.004Z,100.00
2022-11-16T03:53:14.416Z,100.00
2022-11-16T03:55:43.437Z,100.00
2022-11-16T03:58:12.143Z,100.00
2022-11-16T04:00:38.725Z,100.00
2022-11-16T04:03:05.144Z,100.00
2022-11-16T04:05:50.134Z,100.00
2022-11-16T04:08:37.739Z,100.00
2022-11-16T04:11:22.694Z,98.95
2022-11-16T04:14:09.579Z,97.43
2022-11-16T04:16:54.870Z,98.35
2022-11-16T04:19:39.658Z,98.39
2022-11-16T04:22:32.469Z,99.57
2022-11-16T04:25:08.339Z,100.00
2022-11-16T04:27:53.936Z,98.90
2022-11-16T04:30:20.616Z,99.92
2022-11-16T04:33:05.660Z,100.00
2022-11-16T04:35:50.215Z,100.00
2022-11-16T04:38:16.870Z,100.00
2022-11-16T04:40:43.321Z,100.00
2022-11-16T04:43:09.841Z,100.00
2022-11-16T04:45:55.359Z,100.00
2022-11-16T04:48:21.913Z,100.00
2022-11-16T04:50:48.381Z,100.00
2022-11-16T04:53:15.411Z,100.00
2022-11-16T04:55:41.884Z,100.00
2022-11-16T04:58:08.425Z,100.00
2022-11-16T05:00:35.003Z,100.00
2022-11-16T05:03:04.109Z,100.00
2022-11-16T05:05:30.858Z,100.00
2022-11-16T05:07:57.241Z,100.00
2022-11-16T05:10:23.851Z,99.52
2022-11-16T05:12:50.252Z,99.71
2022-11-16T05:15:19.852Z,100.00
2022-11-16T05:17:47.659Z,100.00
2022-11-16T05:20:33.244Z,100.00
2022-11-16T05:22:59.781Z,100.00
2022-11-16T05:25:27.475Z,100.00
2022-11-16T05:27:55.889Z,100.00
2022-11-16T05:30:22.369Z,100.00
2022-11-16T05:33:18.026Z,99.75
2022-11-16T05:35:44.452Z,99.38
2022-11-16T05:38:10.972Z,99.00
2022-11-16T05:40:37.338Z,97.96
2022-11-16T05:43:03.807Z,98.08
2022-11-16T05:45:30.247Z,97.88
2022-11-16T05:47:56.849Z,98.70
2022-11-16T05:50:23.265Z,97.33
2022-11-16T05:52:49.651Z,97.28
2022-11-16T05:55:16.352Z,96.57
2022-11-16T05:57:42.986Z,96.77
2022-11-16T06:00:10.097Z,97.02
2022-11-16T06:02:36.655Z,98.27
2022-11-16T06:05:03.264Z,97.62
2022-11-16T06:07:29.787Z,98.70
2022-11-16T06:09:56.229Z,100.00
2022-11-16T06:12:22.847Z,99.39
2022-11-16T06:14:49.292Z,98.88
2022-11-16T06:17:15.847Z,98.83
2022-11-16T06:19:42.281Z,98.39
2022-11-16T06:22:11.014Z,99.69
2022-11-16T06:24:37.574Z,99.17
2022-11-16T06:27:04.031Z,97.77
2022-11-16T06:29:30.453Z,98.54
2022-11-16T06:31:57.026Z,98.86
2022-11-16T06:34:23.982Z,98.27
2022-11-16T06:36:50.487Z,97.99
2022-11-16T06:39:17.260Z,97.86
2022-11-16T06:41:43.636Z,97.78
2022-11-16T06:44:10.131Z,97.63
2022-11-16T06:46:36.682Z,97.53
2022-11-16T06:49:03.110Z,96.39
2022-11-16T06:51:29.522Z,95.92
2022-11-16T06:53:56.070Z,96.49
2022-11-16T06:56:22.805Z,96.39
2022-11-16T06:58:53.064Z,96.00
2022-11-16T07:01:20.123Z,96.53
2022-11-16T07:03:46.905Z,96.77
2022-11-16T07:06:14.466Z,97.03
2022-11-16T07:08:41.150Z,96.21
2022-11-16T07:11:09.552Z,96.01
2022-11-16T07:13:40.264Z,95.67
2022-11-16T07:16:09.816Z,94.87
2022-11-16T07:18:41.564Z,95.14
2022-11-16T07:21:13.740Z,94.99
2022-11-16T07:23:41.004Z,94.96
2022-11-16T07:26:09.416Z,94.93
2022-11-16T07:28:36.409Z,96.26
2022-11-16T07:31:05.964Z,97.04
2022-11-16T07:33:32.799Z,96.30
2022-11-16T07:36:08.051Z,95.81
2022-11-16T07:38:35.166Z,96.53
2022-11-16T07:41:14.098Z,97.01
2022-11-16T07:43:40.897Z,96.53
2022-11-16T07:48:58.569Z,93.44
2022-11-16T07:51:25.033Z,92.83
2022-11-16T07:53:55.875Z,90.60
2022-11-16T07:56:22.657Z,85.63
2022-11-16T07:58:49.229Z,86.32
2022-11-16T08:01:17.488Z,85.82
2022-11-16T08:03:45.788Z,82.25
2022-11-16T08:06:16.322Z,81.67
2022-11-16T08:08:43.226Z,81.24
2022-11-16T08:11:11.846Z,80.12
2022-11-16T08:13:40.407Z,78.48
2022-11-16T08:16:19.272Z,77.29
2022-11-16T08:18:46.772Z,72.62
2022-11-16T08:21:16.108Z,70.18
2022-11-16T08:23:44.678Z,68.39
2022-11-16T08:26:15.244Z,66.42
2022-11-16T08:28:43.721Z,67.48
2022-11-16T08:31:16.468Z,67.89
2022-11-16T08:33:43.271Z,73.33
2022-11-16T08:36:14.387Z,72.99
2022-11-16T08:38:41.146Z,73.41
2022-11-16T08:41:07.813Z,72.64
2022-11-16T08:43:35.815Z,72.25
2022-11-16T08:46:03.148Z,74.03
2022-11-16T08:48:29.751Z,74.82
2022-11-16T08:51:16.938Z,76.88
2022-11-16T08:53:43.991Z,77.63
2022-11-16T08:56:13.622Z,78.16
2022-11-16T08:58:43.533Z,77.75
2022-11-16T09:01:12.252Z,76.46
2022-11-16T09:03:38.916Z,75.46
2022-11-16T09:06:06.708Z,71.22
2022-11-16T09:08:34.159Z,68.94
2022-11-16T09:11:04.255Z,67.95
2022-11-16T09:13:30.763Z,67.78
2022-11-16T09:16:01.294Z,68.53
2022-11-16T09:18:28.940Z,71.34
2022-11-16T09:20:55.792Z,69.97
2022-11-16T09:23:25.498Z,71.61
2022-11-16T09:25:53.137Z,71.92
2022-11-16T09:28:21.307Z,68.69
2022-11-16T09:30:50.650Z,66.87
2022-11-16T09:33:17.562Z,61.93
2022-11-16T09:35:44.292Z,62.12
2022-11-16T09:38:13.633Z,60.33
2022-11-16T09:40:46.383Z,58.56
2022-11-16T09:43:31.969Z,58.88
2022-11-16T09:46:07.458Z,57.88
2022-11-16T09:48:37.641Z,55.79
2022-11-16T09:51:08.941Z,57.31
2022-11-16T09:53:46.195Z,57.19
2022-11-16T09:56:22.300Z,56.56
2022-11-16T09:58:55.570Z,54.59
2022-11-16T10:01:40.178Z,55.76
2022-11-16T10:04:27.252Z,58.50
2022-11-16T10:07:06.327Z,58.05
2022-11-16T10:09:33.142Z,55.05
2022-11-16T10:11:59.521Z,53.71
2022-11-16T10:14:51.177Z,54.68
2022-11-16T10:17:23.973Z,60.20
2022-11-16T10:19:56.421Z,60.58
2022-11-16T10:22:40.952Z,63.94
2022-11-16T10:25:21.100Z,63.42
2022-11-16T10:28:06.445Z,64.21
2022-11-16T10:30:48.457Z,63.91
2022-11-16T10:33:20.062Z,63.20
2022-11-16T10:35:53.999Z,64.86
2022-11-16T10:38:24.894Z,65.48
2022-11-16T10:40:56.552Z,65.72
2022-11-16T10:43:30.020Z,64.79
2022-11-16T10:46:01.140Z,65.43
2022-11-16T10:48:42.539Z,65.25
2022-11-16T10:51:10.493Z,64.34
2022-11-16T10:53:39.161Z,63.08
2022-11-16T10:56:31.946Z,63.40
2022-11-16T10:59:13.681Z,61.91
2022-11-16T11:01:43.545Z,63.51
2022-11-16T11:04:22.706Z,61.62
2022-11-16T11:06:57.512Z,59.45
2022-11-16T11:09:37.173Z,57.42
2022-11-16T11:12:36.733Z,57.59
2022-11-16T11:15:15.563Z,58.56
2022-11-16T11:17:44.648Z,62.74
2022-11-16T11:20:17.338Z,63.77
2022-11-16T11:23:02.534Z,63.38
2022-11-16T11:25:36.017Z,64.35
2022-11-16T11:28:23.381Z,65.97
2022-11-16T11:31:17.027Z,66.67
2022-11-16T11:33:49.998Z,66.63
2022-11-16T11:36:21.486Z,65.85
2022-11-16T11:39:01.446Z,66.48
2022-11-16T11:41:39.777Z,68.56
2022-11-16T11:44:17.611Z,68.58
2022-11-16T11:49:49.968Z,68.31
2022-11-16T11:52:31.151Z,72.14
2022-11-16T11:54:57.584Z,71.33
2022-11-16T11:57:24.900Z,73.09
2022-11-16T11:59:54.517Z,72.06
2022-11-16T12:02:54.846Z,71.94
2022-11-16T12:05:43.152Z,71.76
2022-11-16T12:08:47.425Z,70.97
2022-11-16T12:11:51.219Z,70.64
2022-11-16T12:14:32.785Z,69.48
2022-11-16T12:17:02.359Z,70.53
2022-11-16T12:19:58.112Z,70.78
2022-11-16T12:22:41.389Z,73.55
2022-11-16T12:25:07.852Z,75.63
2022-11-16T12:27:52.882Z,76.52
2022-11-16T12:30:21.784Z,75.21
2022-11-16T12:33:03.416Z,75.92
2022-11-16T12:35:53.041Z,76.46
2022-11-16T12:38:41.064Z,75.76
2022-11-16T12:41:43.913Z,78.00
2022-11-16T12:44:14.716Z,77.07
2022-11-16T12:47:07.755Z,76.32
2022-11-16T12:49:43.346Z,77.53
2022-11-16T12:52:21.104Z,79.25
2022-11-16T12:55:26.014Z,78.67
2022-11-16T12:58:37.672Z,77.47
2022-11-16T13:01:29.213Z,77.36
2022-11-16T13:04:03.723Z,78.13
2022-11-16T13:06:36.732Z,77.90
2022-11-16T13:09:13.645Z,77.39
2022-11-16T13:11:45.793Z,78.18
2022-11-16T13:14:17.864Z,76.25
2022-11-16T13:16:46.333Z,76.76
2022-11-16T13:19:15.709Z,77.50
2022-11-16T13:21:48.236Z,77.06
2022-11-16T13:24:46.781Z,76.70
2022-11-16T13:27:24.210Z,75.64
2022-11-16T13:29:57.563Z,75.59
2022-11-16T13:32:33.926Z,75.67
2022-11-16T13:35:03.931Z,75.96
2022-11-16T13:37:39.445Z,76.09
2022-11-16T13:40:05.845Z,75.95
2022-11-16T13:42:35.755Z,73.91
2022-11-16T13:45:16.775Z,76.90
2022-11-16T13:47:52.837Z,75.48
2022-11-16T13:50:22.601Z,74.29
2022-11-16T13:54:17.578Z,75.37
2022-11-16T13:55:42.843Z,75.60
2022-11-16T13:58:12.843Z,76.17
2022-11-16T14:00:40.536Z,76.78
2022-11-16T14:03:16.290Z,77.47
2022-11-16T14:05:45.099Z,80.15
2022-11-16T14:08:37.251Z,79.15
2022-11-16T14:11:05.336Z,80.23
2022-11-16T14:13:47.017Z,80.53
2022-11-16T14:16:19.574Z,80.92
2022-11-16T14:18:53.772Z,81.00
2022-11-16T14:21:31.863Z,81.43
2022-11-16T14:24:17.099Z,81.52
2022-11-16T14:27:08.569Z,82.41
2022-11-16T14:29:47.158Z,83.83
2022-11-16T14:32:23.498Z,82.16
2022-11-16T14:34:52.199Z,82.37
2022-11-16T14:37:40.293Z,82.38
2022-11-16T14:40:13.907Z,82.65
2022-11-16T14:43:14.930Z,82.38
2022-11-16T14:45:38.443Z,83.25
2022-11-16T14:48:20.061Z,84.46
2022-11-16T14:51:24.789Z,84.88
2022-11-16T14:54:01.949Z,83.96
2022-11-16T14:56:28.556Z,84.51
2022-11-16T14:59:00.253Z,85.06
2022-11-16T15:01:30.241Z,84.51
2022-11-16T15:04:04.859Z,84.31
2022-11-16T15:06:56.448Z,83.61
2022-11-16T15:09:28.962Z,83.99
2022-11-16T15:12:16.173Z,82.75
2022-11-16T15:14:52.192Z,83.77
2022-11-16T15:17:22.488Z,85.04
2022-11-16T15:20:00.894Z,84.42
2022-11-16T15:22:30.600Z,84.38
2022-11-16T15:24:59.365Z,84.09
2022-11-16T15:27:32.535Z,83.81
2022-11-16T15:30:01.801Z,84.16
2022-11-16T15:32:28.479Z,83.56
2022-11-16T15:34:55.048Z,83.41
2022-11-16T15:37:29.249Z,84.59
2022-11-16T15:39:57.830Z,84.90
2022-11-16T15:42:26.805Z,87.24
2022-11-16T15:44:54.344Z,87.49
2022-11-16T15:47:22.304Z,88.17
2022-11-16T15:49:52.964Z,88.74
2022-11-16T15:52:49.436Z,90.10
2022-11-16T15:55:34.069Z,90.12
2022-11-16T15:58:25.854Z,90.61
2022-11-16T16:00:53.481Z,90.83
2022-11-16T16:03:26.062Z,91.17
2022-11-16T16:05:54.438Z,91.87
2022-11-16T16:08:35.791Z,90.62
2022-11-16T16:11:27.255Z,90.45
2022-11-16T16:13:59.901Z,91.36
2022-11-16T16:16:28.129Z,91.87
2022-11-16T16:18:58.152Z,91.67
2022-11-16T16:21:26.135Z,92.37
2022-11-16T16:23:54.759Z,92.52
2022-11-16T16:26:22.231Z,93.46
2022-11-16T16:28:50.683Z,93.28
2022-11-16T16:31:19.116Z,92.68
2022-11-16T16:33:45.519Z,92.83
2022-11-16T16:36:13.491Z,91.64
2022-11-16T16:38:40.194Z,92.09
2022-11-16T16:41:06.877Z,91.62
2022-11-16T16:43:33.980Z,91.78
2022-11-16T16:46:02.195Z,91.66
2022-11-16T16:48:28.894Z,92.07
2022-11-16T16:50:55.351Z,92.82
2022-11-16T16:53:21.835Z,92.63
2022-11-16T16:55:48.898Z,93.90
2022-11-16T16:58:16.125Z,93.39
2022-11-16T17:00:42.868Z,94.02
2022-11-16T17:03:09.597Z,93.71
2022-11-16T17:05:36.326Z,94.46
2022-11-16T17:08:03.066Z,94.38
2022-11-16T17:10:29.838Z,94.59
2022-11-16T17:12:57.255Z,93.43
2022-11-16T17:15:24.076Z,93.78
2022-11-16T17:17:50.658Z,94.89
2022-11-16T17:20:17.281Z,94.56
2022-11-16T17:22:43.880Z,95.27
2022-11-16T17:25:10.675Z,95.08
2022-11-16T17:27:37.189Z,96.29
2022-11-16T17:30:04.221Z,97.20
2022-11-16T17:32:30.804Z,97.68
2022-11-16T17:34:57.243Z,96.77
2022-11-16T17:37:23.850Z,97.22
2022-11-16T17:39:50.290Z,96.05
2022-11-16T17:42:16.811Z,96.05
2022-11-16T17:44:43.221Z,97.28
2022-11-16T17:47:09.705Z,97.44
2022-11-16T17:49:36.120Z,96.75
2022-11-16T17:52:02.933Z,96.67
2022-11-16T17:54:29.348Z,98.35
2022-11-16T17:56:55.797Z,97.63
2022-11-16T17:59:27.923Z,97.22
2022-11-16T18:01:57.604Z,96.64
2022-11-16T18:04:24.449Z,97.66
2022-11-16T18:06:50.921Z,96.30
2022-11-16T18:09:18.672Z,96.58
2022-11-16T18:11:45.190Z,97.40
2022-11-16T18:14:11.642Z,97.16
2022-11-16T18:16:40.945Z,97.81
2022-11-16T18:19:07.462Z,97.31
2022-11-16T18:21:41.012Z,96.23
2022-11-16T18:24:08.082Z,95.01
2022-11-16T18:26:34.821Z,95.29
2022-11-16T18:29:01.350Z,96.63
2022-11-16T18:31:29.627Z,95.49
2022-11-16T18:33:56.095Z,96.04
2022-11-16T18:36:22.968Z,94.67
2022-11-16T18:38:49.759Z,95.16
2022-11-16T18:41:19.900Z,95.15
2022-11-16T18:43:54.738Z,95.51
2022-11-16T18:46:25.832Z,95.36
2022-11-16T18:48:52.497Z,95.87
2022-11-16T18:51:20.939Z,95.30
2022-11-16T18:53:47.629Z,94.98
2022-11-16T18:56:15.057Z,96.15
2022-11-16T18:58:51.268Z,96.62
2022-11-16T19:01:20.949Z,95.96
2022-11-16T19:03:47.821Z,94.53
2022-11-16T19:06:15.762Z,95.66
2022-11-16T19:08:42.780Z,95.78
2022-11-16T19:11:11.835Z,97.11
2022-11-16T19:13:40.132Z,96.68
2022-11-16T19:16:07.947Z,96.54
2022-11-16T19:18:35.453Z,95.50
2022-11-16T19:21:07.672Z,94.84
2022-11-16T19:23:38.594Z,93.29
2022-11-16T19:26:06.313Z,92.12
2022-11-16T19:28:40.473Z,92.32
2022-11-16T19:31:12.362Z,92.17
2022-11-16T19:33:39.332Z,91.81
2022-11-16T19:36:18.197Z,90.96
2022-11-16T19:38:46.853Z,90.13
2022-11-16T19:41:14.912Z,90.43
2022-11-16T19:43:42.182Z,91.67
2022-11-16T19:46:16.685Z,95.11
2022-11-16T19:48:44.336Z,95.78
2022-11-16T19:51:13.739Z,97.06
2022-11-16T19:53:40.416Z,96.30
2022-11-16T19:56:09.886Z,96.34
2022-11-16T19:58:38.299Z,95.30
2022-11-16T20:01:07.448Z,95.94
2022-11-16T20:03:34.823Z,95.16
2022-11-16T20:06:13.575Z,95.79
2022-11-16T20:08:41.504Z,96.70
2022-11-16T20:11:15.165Z,97.41
2022-11-16T20:13:42.444Z,97.14
2022-11-16T20:16:11.081Z,95.18
2022-11-16T20:18:38.378Z,95.41
2022-11-16T20:21:06.016Z,95.07
2022-11-16T20:23:37.634Z,94.87
2022-11-16T20:26:10.000Z,94.14
2022-11-16T20:28:38.233Z,95.87
2022-11-16T20:31:08.521Z,94.75
2022-11-16T20:33:35.250Z,95.77
2022-11-16T20:36:06.930Z,95.64
2022-11-16T20:38:34.409Z,94.88
2022-11-16T20:41:15.255Z,93.25
2022-11-16T20:43:43.362Z,94.21
2022-11-16T20:46:15.022Z,93.14
2022-11-16T20:48:42.748Z,94.14
2022-11-16T20:51:12.622Z,94.31
2022-11-16T20:53:39.186Z,93.99
2022-11-16T20:56:07.628Z,95.93
2022-11-16T20:58:34.670Z,94.84
2022-11-16T21:01:02.724Z,95.00
2022-11-16T21:03:29.239Z,95.25
2022-11-16T21:05:55.978Z,94.78
2022-11-16T21:08:23.881Z,94.74
2022-11-16T21:10:50.294Z,94.69
2022-11-16T21:13:37.823Z,94.87
2022-11-16T21:16:11.351Z,95.06
2022-11-16T21:18:39.432Z,94.59
2022-11-16T21:21:14.062Z,94.72
2022-11-16T21:23:49.900Z,95.69
2022-11-16T21:26:16.314Z,94.71
2022-11-16T21:28:45.786Z,94.50
2022-11-16T21:31:25.669Z,94.17
2022-11-16T21:33:53.477Z,93.48
2022-11-16T21:36:22.594Z,94.27
2022-11-16T21:38:50.040Z,95.35
2022-11-16T21:41:18.426Z,96.01
2022-11-16T21:43:45.354Z,96.99
2022-11-16T21:46:17.238Z,97.99
2022-11-16T21:48:44.343Z,98.01
2022-11-16T21:51:13.453Z,97.75
2022-11-16T21:53:40.182Z,98.33
2022-11-16T21:56:11.456Z,97.93
2022-11-16T21:58:39.132Z,97.96
2022-11-16T22:01:05.958Z,98.54
2022-11-16T22:03:33.127Z,98.85
2022-11-16T22:06:21.301Z,99.01
2022-11-16T22:08:48.671Z,98.56
2022-11-16T22:11:16.085Z,97.33
2022-11-16T22:13:43.343Z,96.77
2022-11-16T22:16:12.125Z,96.10
2022-11-16T22:18:39.067Z,96.31
2022-11-16T22:21:05.847Z,95.50
2022-11-16T22:23:32.899Z,96.57
2022-11-16T22:26:04.932Z,95.88
2022-11-16T22:28:33.156Z,94.81
2022-11-16T22:31:04.967Z,94.31
2022-11-16T22:33:32.726Z,94.44
2022-11-16T22:35:59.658Z,93.61
2022-11-16T22:38:26.501Z,94.39
2022-11-16T22:40:54.813Z,94.28
2022-11-16T22:43:23.771Z,93.21
2022-11-16T22:45:50.678Z,94.66
2022-11-16T22:48:17.768Z,95.36
2022-11-16T22:50:44.227Z,93.97
2022-11-16T22:53:10.680Z,94.41
2022-11-16T22:55:38.548Z,94.45
2022-11-16T22:58:05.459Z,93.38
2022-11-16T23:00:37.466Z,93.18
2022-11-16T23:03:07.324Z,95.96
2022-11-16T23:05:33.868Z,97.05
2022-11-16T23:08:00.302Z,96.26
2022-11-16T23:10:26.770Z,96.25
2022-11-16T23:13:12.034Z,95.08
2022-11-16T23:15:50.330Z,95.58
2022-11-16T23:18:17.500Z,94.76
2022-11-16T23:21:02.381Z,94.03
2022-11-16T23:23:47.297Z,93.87
2022-11-16T23:26:41.073Z,93.42
2022-11-16T23:29:11.439Z,92.99
2022-11-16T23:31:38.416Z,94.40
2022-11-16T23:34:05.815Z,95.37
2022-11-16T23:36:32.364Z,94.70
2022-11-16T23:38:58.906Z,94.66
2022-11-16T23:41:43.590Z,94.07
2022-11-16T23:44:10.043Z,94.37
2022-11-16T23:46:36.640Z,94.13
2022-11-16T23:49:03.133Z,93.55
2022-11-16T23:51:29.486Z,92.51
2022-11-16T23:53:55.974Z,93.79
2022-11-16T23:56:23.230Z,93.76
2022-11-16T23:58:50.118Z,92.87
